KBEH/BEH METAR and TAF weather

Enter ICAO airport designator
Station Type Date Time Source
KBEH METAR 2019/08/22 06:53 UTC NOAA

KBEH 220653Z AUTO 00000KT 10SM CLR 19/18 A2997 RMK AO2 SLP145 T01940178


Station Type Date Time Source
KBEH Decoded METAR 2019/08/22 06:53 UTC NOAA

Station name not available
Aug 22, 2019 - 02:53 AM EDT / 2019.08.22 0653 UTC
Wind: Calm:0
Visibility: 10 mile(s):0
Sky conditions: clear
Temperature: 66.9 F (19.4 C)
Dew Point: 64.0 F (17.8 C)
Relative Humidity: 90%
Pressure (altimeter): 29.97 in. Hg (1014 hPa)
ob: KBEH 220653Z AUTO 00000KT 10SM CLR 19/18 A2997 RMK AO2 SLP145 T01940178
cycle: 7

Station Type Date Time Source
KBEH TAF UTC NOAA

Error!

Example: see airport list